Řízení letového provozu České republiky
Letiste: LKMT Aktualizace: 27.05.2019 00:00:33  UTC
 METAR LKMT 27.05. 00:00 ...
METAR LKMT 270000Z 22005KT CAVOK 13/11 Q1012 NOSIG RMK REG QNH 1008=
 TAF LKMT 26.05. 23:00 ...
TAF LKMT 262300Z 2700/2806 21008KT CAVOK      TEMPO 2710/2716 23014G26KT 7000 SHRA SCT040CB      BECMG 2716/2719 9000 -RA BKN035      BECMG 2720/2723 3500 RA SCT017 BKN025      BECMG 2803/2806 19014KT=